Time;durP1;ratioP1;P1;durP2;ratioP2;P2;SDS_P1;SDS_P2;PMS_P1;PMS_P2;Temp;Humidity;BMP_temperature;BMP_pressure;BME280_temperature;BME280_humidity;BME280_pressure;Samples;Min_cycle;Max_cycle;Signal;HPM_P1;HPM_P2
2021/09/15 00:00:51;;;;;;;0.40;0.10;;;;;;;16.60;63.59;100716.52;112544;1205;94977;-73
2021/09/15 00:03:18;;;;;;;0.40;0.10;;;;;;;16.42;64.09;100713.16;112435;1198;138243;-72
2021/09/15 00:05:45;;;;;;;0.40;0.10;;;;;;;16.40;64.22;100716.70;112600;1197;96070;-72
2021/09/15 00:08:11;;;;;;;0.40;0.10;;;;;;;16.42;64.33;100715.87;112463;1198;94934;-72
2021/09/15 00:10:38;;;;;;;0.40;0.20;;;;;;;16.39;64.26;100713.15;112349;1200;137063;-72
2021/09/15 00:13:05;;;;;;;0.40;0.20;;;;;;;16.45;64.28;100716.48;112461;1199;109194;-72
2021/09/15 00:15:32;;;;;;;0.40;0.10;;;;;;;16.56;64.03;100714.38;112376;1205;138348;-72
2021/09/15 00:17:58;;;;;;;0.40;0.10;;;;;;;16.63;63.54;100717.42;112567;1197;96138;-73
2021/09/15 00:20:25;;;;;;;0.40;0.10;;;;;;;16.61;63.31;100716.12;112488;1198;94937;-73
2021/09/15 00:22:51;;;;;;;0.40;0.10;;;;;;;16.53;63.36;100718.94;112377;1200;138212;-73
2021/09/15 00:25:18;;;;;;;0.40;0.10;;;;;;;16.53;63.63;100716.82;112508;1206;94830;-72
2021/09/15 00:27:45;;;;;;;0.40;0.10;;;;;;;16.55;63.62;100714.91;112370;1205;137765;-72
2021/09/15 00:30:12;;;;;;;0.40;0.20;;;;;;;16.60;63.43;100714.90;112513;1201;94848;-71
2021/09/15 00:32:38;;;;;;;0.40;0.10;;;;;;;16.54;63.58;100712.80;112347;1199;94981;-72
2021/09/15 00:35:07;;;;;;;0.40;0.10;;;;;;;16.43;63.82;100713.00;112330;1197;137636;-72
2021/09/15 00:37:33;;;;;;;0.40;0.20;;;;;;;16.36;64.12;100712.94;112636;1199;94913;-72
2021/09/15 00:40:00;;;;;;;0.40;0.10;;;;;;;16.39;63.98;100712.79;112472;1198;136605;-72
2021/09/15 00:42:27;;;;;;;0.40;0.20;;;;;;;16.47;63.68;100714.76;112389;1198;94941;-71
2021/09/15 00:44:54;;;;;;;0.40;0.10;;;;;;;16.45;63.84;100718.80;112390;1199;94950;-72
2021/09/15 00:47:21;;;;;;;0.40;0.10;;;;;;;16.30;64.10;100718.03;112407;1200;136910;-72
2021/09/15 00:49:48;;;;;;;0.40;0.20;;;;;;;16.23;64.38;100722.46;112652;1204;94923;-72
2021/09/15 00:52:14;;;;;;;0.40;0.10;;;;;;;16.16;64.43;100725.81;112303;1199;137562;-72
2021/09/15 00:54:43;;;;;;;0.40;0.10;;;;;;;16.10;64.64;100727.86;112496;1200;94907;-72
2021/09/15 00:57:10;;;;;;;0.40;0.20;;;;;;;16.12;64.68;100729.77;112415;1200;137194;-72
2021/09/15 00:59:37;;;;;;;0.40;0.20;;;;;;;16.17;64.61;100729.55;112533;1197;94909;-71
2021/09/15 01:02:03;;;;;;;0.40;0.10;;;;;;;16.23;64.33;100728.38;112238;1206;94885;-72
2021/09/15 01:04:30;;;;;;;0.40;0.20;;;;;;;16.33;63.99;100724.90;112183;1205;139675;-71
2021/09/15 01:06:57;;;;;;;0.40;0.20;;;;;;;16.38;63.82;100727.52;112410;1205;94959;-71
2021/09/15 01:09:23;;;;;;;0.40;0.20;;;;;;;16.40;63.93;100727.09;112329;1201;136867;-72
2021/09/15 01:11:50;;;;;;;0.40;0.10;;;;;;;16.39;63.89;100726.58;112536;1198;94839;-70
2021/09/15 01:14:17;;;;;;;0.40;0.20;;;;;;;16.34;64.04;100727.88;112468;1198;94941;-70
2021/09/15 01:16:55;;;;;;;0.40;0.10;;;;;;;16.31;64.17;100724.24;112325;1197;138149;-71
2021/09/15 01:19:23;;;;;;;0.40;0.20;;;;;;;16.27;64.41;100724.61;112278;1200;110304;-71
2021/09/15 01:21:51;;;;;;;0.40;0.20;;;;;;;16.35;64.15;100727.50;112375;1200;137964;-71
2021/09/15 01:24:18;;;;;;;0.40;0.10;;;;;;;16.39;64.24;100728.00;112418;1200;95172;-71
2021/09/15 01:26:45;;;;;;;0.40;0.20;;;;;;;16.36;64.40;100727.41;112428;1206;111453;-70
2021/09/15 01:29:23;;;;;;;0.40;0.20;;;;;;;16.46;64.05;100726.10;112275;1205;138218;-70
2021/09/15 01:31:57;;;;;;;0.40;0.20;;;;;;;16.46;64.04;100728.41;112348;1199;94866;-71
2021/09/15 01:34:23;;;;;;;0.40;0.10;;;;;;;16.37;64.45;100725.77;112322;1200;137447;-70
2021/09/15 01:36:50;;;;;;;0.40;0.10;;;;;;;16.34;64.68;100723.39;112326;1200;94957;-70
2021/09/15 01:39:17;;;;;;;0.40;0.20;;;;;;;16.42;64.83;100724.30;112363;1204;138224;-70
2021/09/15 01:41:44;;;;;;;0.40;0.20;;;;;;;16.49;64.63;100717.69;112323;1198;95329;-70
2021/09/15 01:44:11;;;;;;;0.40;0.20;;;;;;;16.54;64.56;100717.66;112342;1198;95605;-70
2021/09/15 01:46:37;;;;;;;0.40;0.10;;;;;;;16.49;65.04;100716.11;112277;1199;137331;-70
2021/09/15 01:49:04;;;;;;;0.40;0.20;;;;;;;16.35;65.61;100718.52;112373;1206;108750;-70
2021/09/15 01:51:30;;;;;;;0.40;0.10;;;;;;;16.38;65.36;100715.17;112382;1198;138978;-70
2021/09/15 01:53:57;;;;;;;0.40;0.10;;;;;;;16.49;64.81;100714.66;112395;1206;94830;-70
2021/09/15 01:56:24;;;;;;;0.40;0.10;;;;;;;16.55;64.38;100717.98;112510;1203;95319;-70
2021/09/15 01:58:50;;;;;;;0.40;0.20;;;;;;;16.55;64.28;100723.36;112337;1200;137399;-70
2021/09/15 02:01:17;;;;;;;0.40;0.10;;;;;;;16.54;64.47;100718.73;112345;1198;108403;-70
2021/09/15 02:03:44;;;;;;;0.40;0.10;;;;;;;16.59;64.26;100719.95;112111;1200;138937;-70
2021/09/15 02:06:10;;;;;;;0.40;0.10;;;;;;;16.54;64.22;100719.44;112363;1198;95341;-70
2021/09/15 02:08:37;;;;;;;0.40;0.10;;;;;;;16.50;64.28;100714.97;112410;1199;94842;-70
2021/09/15 02:11:04;;;;;;;0.40;0.10;;;;;;;16.47;64.39;100716.87;112276;1206;137816;-70
2021/09/15 02:13:30;;;;;;;0.40;0.20;;;;;;;16.42;64.79;100717.34;112451;1197;94914;-71
2021/09/15 02:15:57;;;;;;;0.40;0.20;;;;;;;16.42;64.86;100717.88;112244;1197;137630;-71
2021/09/15 02:18:24;;;;;;;0.40;0.10;;;;;;;16.45;64.50;100716.30;112382;1199;94875;-71
2021/09/15 02:20:50;;;;;;;0.40;0.10;;;;;;;16.45;64.47;100717.54;112380;1200;95212;-71
2021/09/15 02:23:17;;;;;;;0.40;0.10;;;;;;;16.46;64.21;100719.26;112401;1197;138375;-71
2021/09/15 02:25:44;;;;;;;0.40;0.10;;;;;;;16.47;63.84;100721.77;112477;1203;94943;-71
2021/09/15 02:28:10;;;;;;;0.40;0.20;;;;;;;16.45;63.73;100720.20;112399;1205;137453;-71
2021/09/15 02:30:37;;;;;;;0.40;0.20;;;;;;;16.45;63.59;100723.47;112414;1198;94837;-71
2021/09/15 02:33:04;;;;;;;0.40;0.20;;;;;;;16.46;63.53;100724.48;112245;1206;138345;-71
2021/09/15 02:35:30;;;;;;;0.40;0.10;;;;;;;16.46;63.83;100720.54;112368;1200;95813;-71
2021/09/15 02:37:57;;;;;;;0.40;0.10;;;;;;;16.43;64.08;100720.30;112329;1200;94930;-70
2021/09/15 02:40:23;;;;;;;0.40;0.10;;;;;;;16.47;64.20;100717.45;112269;1206;137430;-70
2021/09/15 02:42:50;;;;;;;0.40;0.10;;;;;;;16.52;64.34;100718.63;112409;1205;95339;-70
2021/09/15 02:45:17;;;;;;;0.40;0.10;;;;;;;16.58;64.47;100717.12;112436;1198;138292;-72
2021/09/15 02:47:43;;;;;;;0.40;0.10;;;;;;;16.64;64.56;100720.98;112299;1205;95204;-73
2021/09/15 02:50:10;;;;;;;0.40;0.10;;;;;;;16.67;64.56;100725.47;112322;1200;94932;-70
2021/09/15 02:52:37;;;;;;;0.40;0.10;;;;;;;16.70;64.56;100722.48;112304;1205;137721;-71
2021/09/15 02:55:04;;;;;;;0.40;0.10;;;;;;;16.77;64.60;100720.73;112486;1198;95323;-70
2021/09/15 02:57:30;;;;;;;0.40;0.10;;;;;;;16.82;64.78;100720.14;112190;1206;138466;-70
2021/09/15 02:59:57;;;;;;;0.40;0.10;;;;;;;16.86;65.14;100722.81;112466;1198;94857;-71
2021/09/15 03:02:23;;;;;;;0.40;0.10;;;;;;;16.81;65.59;100720.55;112388;1198;94832;-71
2021/09/15 03:04:50;;;;;;;0.40;0.10;;;;;;;16.83;65.56;100723.50;112413;1197;137895;-71
2021/09/15 03:07:17;;;;;;;0.40;0.10;;;;;;;16.87;65.58;100720.27;112490;1198;95354;-72
2021/09/15 03:09:43;;;;;;;0.40;0.20;;;;;;;16.93;65.44;100715.72;112379;1199;138213;-71
2021/09/15 03:12:10;;;;;;;0.40;0.10;;;;;;;16.99;65.18;100714.50;112295;1206;94903;-71
2021/09/15 03:14:37;;;;;;;0.40;0.10;;;;;;;17.03;65.34;100710.89;112516;1197;94844;-71
2021/09/15 03:17:03;;;;;;;0.40;0.10;;;;;;;17.00;65.87;100707.83;112192;1200;138071;-71
2021/09/15 03:19:30;;;;;;;0.40;0.10;;;;;;;16.93;66.64;100706.55;112328;1203;94883;-71
2021/09/15 03:21:57;;;;;;;0.40;0.10;;;;;;;16.74;67.46;100706.70;112136;1198;138184;-71
2021/09/15 03:24:23;;;;;;;0.40;0.10;;;;;;;16.65;67.99;100703.36;112246;1205;94839;-71
2021/09/15 03:26:51;;;;;;;0.40;0.10;;;;;;;16.58;68.39;100704.41;112403;1198;95019;-71
2021/09/15 03:29:18;;;;;;;0.40;0.10;;;;;;;16.52;68.71;100704.29;112322;1198;137598;-71
2021/09/15 03:31:44;;;;;;;0.40;0.10;;;;;;;16.55;68.69;100704.52;112396;1199;94848;-71
2021/09/15 03:34:11;;;;;;;0.40;0.10;;;;;;;16.66;68.55;100709.39;112306;1206;138297;-71
2021/09/15 03:36:46;;;;;;;0.40;0.10;;;;;;;16.61;68.59;100710.18;112425;1203;94839;-70
2021/09/15 03:39:14;;;;;;;0.40;0.10;;;;;;;16.48;69.04;100704.88;112180;1198;138302;-71
2021/09/15 03:41:41;;;;;;;0.40;0.10;;;;;;;16.50;69.18;100705.10;112397;1205;94843;-74
2021/09/15 03:44:08;;;;;;;0.40;0.10;;;;;;;16.63;68.86;100707.02;112503;1199;95343;-71
2021/09/15 03:46:35;;;;;;;0.40;0.10;;;;;;;16.85;68.32;100706.91;112224;1198;138222;-71
2021/09/15 03:49:01;;;;;;;0.40;0.10;;;;;;;16.93;67.93;100709.76;112382;1198;95388;-71
2021/09/15 03:51:28;;;;;;;0.40;0.10;;;;;;;16.71;68.16;100709.14;112385;1199;137491;-71
2021/09/15 03:53:55;;;;;;;0.40;0.10;;;;;;;16.52;68.89;100705.21;112299;1207;96191;-71
2021/09/15 03:56:21;;;;;;;0.40;0.10;;;;;;;16.35;69.46;100707.41;112309;1198;95153;-72
2021/09/15 03:58:48;;;;;;;0.40;0.10;;;;;;;16.23;69.92;100700.43;112247;1200;138057;-71
2021/09/15 04:01:15;;;;;;;0.40;0.10;;;;;;;16.21;70.14;100698.21;112210;1199;95429;-72
2021/09/15 04:03:42;;;;;;;0.40;0.10;;;;;;;16.29;70.07;100696.41;112138;1199;137843;-70
2021/09/15 04:06:08;;;;;;;0.40;0.10;;;;;;;16.40;69.66;100697.71;112338;1198;95365;-71
2021/09/15 04:08:35;;;;;;;0.40;0.10;;;;;;;16.42;69.40;100697.23;112411;1198;95182;-71
2021/09/15 04:11:02;;;;;;;0.40;0.10;;;;;;;16.35;69.55;100692.91;112202;1203;138663;-71
2021/09/15 04:13:29;;;;;;;0.40;0.10;;;;;;;16.28;69.64;100694.48;112518;1204;94891;-71
2021/09/15 04:15:56;;;;;;;0.40;0.10;;;;;;;16.18;69.93;100691.35;112147;1201;137349;-71
2021/09/15 04:18:22;;;;;;;0.40;0.10;;;;;;;16.06;70.29;100693.84;112343;1206;96858;-71
2021/09/15 04:20:49;;;;;;;0.40;0.10;;;;;;;15.94;70.63;100690.80;112422;1198;95236;-71
2021/09/15 04:23:20;;;;;;;0.40;0.10;;;;;;;15.86;70.90;100686.84;112232;1198;137877;-73
2021/09/15 04:31:27;;;;;;;0.40;0.10;;;;;;;15.95;70.62;100680.91;112331;1206;108603;-71
2021/09/15 04:33:54;;;;;;;0.40;0.20;;;;;;;15.97;70.30;100676.88;112051;1198;137816;-71
2021/09/15 04:36:21;;;;;;;0.40;0.10;;;;;;;15.94;70.42;100680.95;112367;1198;95295;-71
2021/09/15 04:38:48;;;;;;;0.40;0.10;;;;;;;16.04;70.21;100681.04;112369;1203;94860;-71
2021/09/15 04:41:16;;;;;;;0.40;0.10;;;;;;;16.14;69.61;100681.50;112331;1205;138200;-71
2021/09/15 04:43:43;;;;;;;0.40;0.10;;;;;;;16.04;69.43;100682.08;112159;1198;95396;-71
2021/09/15 04:46:10;;;;;;;0.40;0.20;;;;;;;15.98;69.64;100688.09;112121;1198;138096;-72
2021/09/15 04:48:38;;;;;;;0.40;0.10;;;;;;;15.96;69.80;100681.95;112268;1199;95364;-71
2021/09/15 04:51:06;;;;;;;0.40;0.10;;;;;;;16.00;69.53;100687.30;112066;1199;138823;-71
2021/09/15 04:53:33;;;;;;;0.40;0.10;;;;;;;16.11;69.39;100680.19;112307;1199;95676;-71
2021/09/15 04:55:59;;;;;;;0.40;0.20;;;;;;;16.16;68.93;100679.41;112285;1205;95398;-72
2021/09/15 04:58:26;;;;;;;0.40;0.10;;;;;;;15.99;68.99;100674.45;112141;1198;137744;-71
2021/09/15 05:00:53;;;;;;;0.40;0.20;;;;;;;15.81;69.49;100681.14;112491;1199;94854;-71
2021/09/15 05:03:19;;;;;;;0.40;0.10;;;;;;;15.73;69.94;100682.17;112260;1203;138222;-72
2021/09/15 05:05:46;;;;;;;0.40;0.10;;;;;;;15.84;69.81;100686.55;112330;1205;94821;-72
2021/09/15 05:08:13;;;;;;;0.40;0.10;;;;;;;15.87;69.90;100696.80;112465;1203;94956;-72
2021/09/15 05:10:39;;;;;;;0.40;0.10;;;;;;;16.00;69.67;100701.42;112268;1197;138242;-71
2021/09/15 05:13:06;;;;;;;0.40;0.20;;;;;;;16.09;69.22;100702.14;112424;1198;95277;-72
2021/09/15 05:15:33;;;;;;;0.40;0.10;;;;;;;16.05;69.36;100702.83;112306;1203;138193;-72
2021/09/15 05:18:03;;;;;;;0.40;0.10;;;;;;;16.09;69.38;100705.34;112412;1205;94919;-72
2021/09/15 05:20:30;;;;;;;0.40;0.10;;;;;;;16.09;69.32;100704.82;112305;1203;94891;-73
2021/09/15 05:22:56;;;;;;;0.40;0.10;;;;;;;16.02;69.78;100705.49;112203;1198;137669;-73
2021/09/15 05:25:24;;;;;;;0.40;0.10;;;;;;;15.99;69.90;100703.63;112373;1198;94908;-71
2021/09/15 05:27:51;;;;;;;0.40;0.10;;;;;;;15.99;70.13;100705.25;112206;1198;138207;-73
2021/09/15 05:30:18;;;;;;;0.40;0.10;;;;;;;16.08;70.18;100703.09;112568;1198;94839;-73
2021/09/15 05:32:45;;;;;;;0.40;0.10;;;;;;;16.18;70.04;100698.33;112337;1199;94808;-72
2021/09/15 05:35:12;;;;;;;0.40;0.10;;;;;;;16.22;69.95;100697.42;112242;1198;138931;-72
2021/09/15 05:37:39;;;;;;;0.40;0.10;;;;;;;16.32;69.90;100698.23;112338;1197;95349;-72
2021/09/15 05:40:06;;;;;;;0.40;0.10;;;;;;;16.47;69.33;100704.73;112356;1203;138014;-73
2021/09/15 05:42:33;;;;;;;0.40;0.10;;;;;;;16.53;69.03;100703.56;112281;1198;94832;-71
2021/09/15 05:45:03;;;;;;;0.40;0.10;;;;;;;16.51;68.97;100700.93;112212;1198;137461;-75
2021/09/15 05:47:30;;;;;;;0.40;0.10;;;;;;;16.49;69.20;100703.38;112324;1203;109608;-73
2021/09/15 05:49:58;;;;;;;0.40;0.10;;;;;;;16.54;69.15;100703.84;112322;1203;94907;-73
2021/09/15 05:52:25;;;;;;;0.40;0.10;;;;;;;16.62;69.07;100707.79;112296;1199;137691;-74
2021/09/15 05:54:52;;;;;;;0.40;0.10;;;;;;;16.63;69.08;100701.66;112327;1198;95354;-74
2021/09/15 05:57:18;;;;;;;0.40;0.10;;;;;;;16.57;69.41;100700.30;112275;1205;138448;-75
2021/09/15 05:59:45;;;;;;;0.40;0.10;;;;;;;16.52;69.66;100697.46;112355;1202;95368;-74
2021/09/15 06:02:12;;;;;;;0.40;0.10;;;;;;;16.58;70.01;100699.19;112421;1205;95344;-72
2021/09/15 06:04:38;;;;;;;0.40;0.10;;;;;;;16.62;70.17;100697.41;112319;1203;138218;-73
2021/09/15 06:07:05;;;;;;;0.40;0.10;;;;;;;16.67;70.26;100692.16;112308;1203;107762;-73
2021/09/15 06:09:32;;;;;;;0.40;0.10;;;;;;;16.76;70.21;100689.38;112187;1203;138073;-72
2021/09/15 06:11:58;;;;;;;0.40;0.10;;;;;;;16.82;70.37;100687.30;112402;1198;94831;-72
2021/09/15 06:14:25;;;;;;;0.40;0.20;;;;;;;16.91;70.18;100686.02;112351;1199;94994;-72
2021/09/15 06:16:52;;;;;;;0.40;0.10;;;;;;;17.03;69.82;100690.29;112260;1199;136949;-72
2021/09/15 06:19:18;;;;;;;0.40;0.10;;;;;;;17.11;69.63;100690.41;112207;1199;108053;-73
2021/09/15 06:21:45;;;;;;;0.40;0.10;;;;;;;17.09;69.67;100688.38;112094;1203;137464;-72
2021/09/15 06:24:13;;;;;;;0.40;0.10;;;;;;;17.11;69.69;100690.06;112354;1198;94872;-72
2021/09/15 06:26:41;;;;;;;0.40;0.10;;;;;;;17.15;69.74;100689.70;112394;1205;94950;-72
2021/09/15 06:29:07;;;;;;;0.40;0.10;;;;;;;17.24;69.86;100686.56;112240;1198;137735;-72
2021/09/15 06:31:34;;;;;;;0.40;0.10;;;;;;;17.30;69.59;100681.23;112347;1198;95743;-72
2021/09/15 06:34:03;;;;;;;0.40;0.10;;;;;;;17.37;69.36;100679.63;112120;1199;138062;-71
2021/09/15 06:36:30;;;;;;;0.40;0.10;;;;;;;17.47;69.10;100673.96;112361;1199;96107;-72
2021/09/15 06:38:58;;;;;;;0.40;0.10;;;;;;;17.50;69.08;100675.21;112265;1203;107397;-72
2021/09/15 06:41:25;;;;;;;0.40;0.10;;;;;;;17.50;69.01;100675.73;112254;1204;137315;-72
2021/09/15 06:43:59;;;;;;;0.40;0.10;;;;;;;17.47;69.03;100668.53;112410;1205;95329;-73
2021/09/15 06:46:26;;;;;;;0.40;0.10;;;;;;;17.50;68.99;100661.22;112199;1203;137720;-72
2021/09/15 06:48:52;;;;;;;0.40;0.10;;;;;;;17.56;69.26;100662.55;112469;1198;94849;-72
2021/09/15 06:51:19;;;;;;;0.40;0.10;;;;;;;17.59;69.11;100666.13;112261;1208;137832;-72
2021/09/15 06:53:47;;;;;;;0.40;0.10;;;;;;;17.62;68.93;100658.80;112305;1205;94832;-72
2021/09/15 06:56:14;;;;;;;0.40;0.10;;;;;;;17.64;68.66;100655.84;112382;1203;94852;-71
2021/09/15 06:58:41;;;;;;;0.40;0.10;;;;;;;17.66;68.52;100652.15;112303;1205;138032;-73
2021/09/15 07:01:08;;;;;;;0.40;0.10;;;;;;;17.71;68.82;100651.34;112360;1204;95326;-73
2021/09/15 07:03:35;;;;;;;0.40;0.10;;;;;;;17.80;68.59;100651.45;112270;1198;138680;-73
2021/09/15 07:06:02;;;;;;;0.40;0.10;;;;;;;17.88;68.44;100648.84;112507;1203;94864;-72
2021/09/15 07:08:28;;;;;;;0.40;0.10;;;;;;;17.99;68.41;100650.10;112425;1199;94819;-72
2021/09/15 07:10:55;;;;;;;0.40;0.10;;;;;;;18.07;68.19;100653.42;112274;1198;137898;-73
2021/09/15 07:13:23;;;;;;;0.40;0.10;;;;;;;18.21;68.40;100655.23;112330;1206;95380;-73
2021/09/15 07:15:50;;;;;;;0.40;0.10;;;;;;;18.40;67.77;100651.27;112256;1205;138291;-73
2021/09/15 07:18:17;;;;;;;0.40;0.10;;;;;;;18.57;67.79;100653.40;112410;1205;94946;-73
2021/09/15 07:20:43;;;;;;;0.40;0.10;;;;;;;18.65;66.94;100654.96;112250;1199;95439;-74
2021/09/15 07:23:10;;;;;;;0.40;0.10;;;;;;;18.74;67.16;100658.23;112196;1203;137688;-73
2021/09/15 07:25:37;;;;;;;0.40;0.10;;;;;;;18.86;66.69;100660.42;112380;1199;94989;-73
2021/09/15 07:28:04;;;;;;;0.40;0.10;;;;;;;18.91;66.02;100658.23;112284;1203;137701;-74
2021/09/15 07:30:30;;;;;;;0.40;0.10;;;;;;;18.94;65.94;100655.54;112396;1205;95328;-74
2021/09/15 07:32:57;;;;;;;0.40;0.10;;;;;;;18.98;65.99;100657.81;112322;1202;94988;-74
2021/09/15 07:35:24;;;;;;;0.40;0.10;;;;;;;19.05;65.63;100660.28;112274;1198;138386;-72
2021/09/15 07:37:51;;;;;;;0.40;0.10;;;;;;;19.14;65.45;100656.38;112381;1198;94953;-72
2021/09/15 07:40:17;;;;;;;0.40;0.10;;;;;;;19.18;64.91;100653.58;112368;1199;137318;-73
2021/09/15 07:42:45;;;;;;;0.40;0.10;;;;;;;19.23;64.79;100655.52;112405;1199;93865;-73
2021/09/15 07:45:12;;;;;;;0.40;0.10;;;;;;;19.29;65.08;100647.59;112242;1198;137862;-72
2021/09/15 07:47:40;;;;;;;0.40;0.10;;;;;;;19.39;64.44;100643.55;112358;1198;109857;-73
2021/09/15 07:50:09;;;;;;;0.40;0.10;;;;;;;19.47;63.61;100638.77;112429;1199;94965;-73
2021/09/15 07:52:36;;;;;;;0.40;0.10;;;;;;;19.56;63.95;100637.69;112509;1198;137767;-74
2021/09/15 07:55:04;;;;;;;0.40;0.10;;;;;;;19.71;64.09;100637.35;112326;1199;108641;-73
2021/09/15 07:57:30;;;;;;;0.40;0.10;;;;;;;19.81;63.12;100634.76;112213;1205;138769;-72
2021/09/15 07:59:58;;;;;;;0.40;0.10;;;;;;;19.85;62.66;100631.83;112368;1199;96091;-73
2021/09/15 08:02:24;;;;;;;0.40;0.10;;;;;;;19.92;63.21;100630.88;112275;1200;95011;-72
2021/09/15 08:04:51;;;;;;;0.40;0.10;;;;;;;19.98;62.53;100635.34;112157;1199;137365;-72
2021/09/15 08:07:18;;;;;;;0.40;0.10;;;;;;;20.07;62.61;100638.59;112517;1199;94857;-73
2021/09/15 08:09:45;;;;;;;0.40;0.10;;;;;;;20.18;61.96;100637.70;112325;1198;137860;-72
2021/09/15 08:12:11;;;;;;;0.40;0.10;;;;;;;20.29;61.57;100635.23;112592;1198;94938;-74
2021/09/15 08:14:38;;;;;;;0.40;0.10;;;;;;;20.38;61.90;100628.36;112520;1197;95040;-73
2021/09/15 08:17:04;;;;;;;0.40;0.10;;;;;;;20.48;62.20;100627.18;112303;1205;137478;-73
2021/09/15 08:19:31;;;;;;;0.40;0.10;;;;;;;20.59;61.68;100631.54;112601;1198;96572;-72
2021/09/15 08:21:58;;;;;;;0.40;0.10;;;;;;;20.72;60.79;100642.63;112502;1203;136945;-73
2021/09/15 08:24:25;;;;;;;0.40;0.10;;;;;;;20.80;59.77;100651.45;112604;1203;95334;-75
2021/09/15 08:26:52;;;;;;;0.40;0.10;;;;;;;20.86;60.11;100655.83;112539;1197;94836;-72
2021/09/15 08:29:18;;;;;;;0.40;0.10;;;;;;;20.93;59.55;100658.56;112506;1198;137703;-73
2021/09/15 08:31:45;;;;;;;0.40;0.10;;;;;;;21.02;59.88;100655.29;112439;1198;94874;-72
2021/09/15 08:34:12;;;;;;;0.40;0.10;;;;;;;21.04;58.66;100654.77;112424;1200;137639;-73
2021/09/15 08:36:38;;;;;;;0.40;0.10;;;;;;;21.11;58.98;100656.84;112479;1198;94831;-72
2021/09/15 08:39:05;;;;;;;0.40;0.10;;;;;;;21.23;59.76;100661.29;112535;1204;137532;-73
2021/09/15 08:41:32;;;;;;;0.40;0.10;;;;;;;21.32;58.81;100665.59;112567;1198;108583;-73
2021/09/15 08:44:02;;;;;;;0.40;0.10;;;;;;;21.41;58.75;100666.27;112410;1197;95376;-73
2021/09/15 08:46:31;;;;;;;0.40;0.10;;;;;;;21.52;58.00;100668.59;112434;1198;137365;-71
2021/09/15 08:48:59;;;;;;;0.40;0.10;;;;;;;21.58;58.30;100670.17;112378;1197;94923;-72
2021/09/15 08:51:26;;;;;;;0.40;0.10;;;;;;;21.68;58.20;100669.16;112323;1197;138218;-74
2021/09/15 08:53:54;;;;;;;0.40;0.10;;;;;;;21.76;57.08;100669.33;112376;1205;108757;-76
2021/09/15 08:56:21;;;;;;;0.40;0.10;;;;;;;22.09;56.17;100663.60;112462;1202;95363;-73
2021/09/15 08:58:48;;;;;;;0.40;0.00;;;;;;;22.71;54.33;100663.86;112465;1197;137296;-72
2021/09/15 09:01:18;;;;;;;0.40;0.00;;;;;;;23.10;52.71;100661.23;112458;1198;94898;-75
2021/09/15 09:03:46;;;;;;;0.40;0.10;;;;;;;23.15;52.66;100656.88;112220;1203;137505;-74
2021/09/15 09:06:15;;;;;;;0.40;0.00;;;;;;;23.23;52.79;100655.17;112464;1205;95217;-74
2021/09/15 09:08:44;;;;;;;0.40;0.10;;;;;;;23.49;53.38;100654.14;112527;1198;94930;-73
2021/09/15 09:11:12;;;;;;;0.40;0.00;;;;;;;23.48;52.48;100648.95;112379;1205;137476;-77
2021/09/15 09:13:53;;;;;;;0.40;0.10;;;;;;;23.35;52.00;100652.83;112665;1198;109397;-72
2021/09/15 09:16:40;;;;;;;0.40;0.00;;;;;;;23.52;51.03;100652.79;112460;1203;137508;-72
2021/09/15 09:19:10;;;;;;;0.40;0.10;;;;;;;24.54;48.94;100643.05;112356;1199;94908;-72
2021/09/15 09:21:39;;;;;;;0.40;0.00;;;;;;;25.19;47.84;100644.65;112477;1198;137606;-73
2021/09/15 09:24:08;;;;;;;0.40;0.00;;;;;;;25.17;47.42;100642.65;112570;1199;110121;-73
2021/09/15 09:27:01;;;;;;;0.40;0.00;;;;;;;25.05;47.41;100644.38;112595;1204;95415;-74
2021/09/15 09:29:34;;;;;;;0.40;0.00;;;;;;;25.04;47.68;100638.58;112442;1198;137328;-74
2021/09/15 09:32:08;;;;;;;0.40;0.00;;;;;;;25.01;47.93;100636.85;112574;1203;109070;-73
2021/09/15 09:34:44;;;;;;;0.40;0.00;;;;;;;24.91;47.44;100640.08;112370;1201;137892;-73
2021/09/15 09:37:21;;;;;;;0.40;0.00;;;;;;;24.94;47.31;100642.49;112472;1204;95026;-72
2021/09/15 09:39:48;;;;;;;0.40;0.00;;;;;;;25.23;45.99;100644.70;112568;1204;137504;-72
2021/09/15 09:42:24;;;;;;;0.40;0.00;;;;;;;25.69;45.11;100638.05;112574;1204;108608;-73
2021/09/15 09:44:55;;;;;;;0.40;0.10;;;;;;;26.55;42.46;100627.30;112618;1199;109944;-72
2021/09/15 09:47:24;;;;;;;0.40;0.00;;;;;;;27.49;40.65;100621.81;112370;1198;136404;-75
2021/09/15 09:50:07;;;;;;;0.40;0.00;;;;;;;28.44;39.00;100619.87;112595;1198;94843;-73
2021/09/15 09:53:00;;;;;;;0.40;0.00;;;;;;;29.76;36.81;100619.48;112378;1199;137479;-73
2021/09/15 09:55:35;;;;;;;0.40;0.00;;;;;;;30.92;33.99;100618.88;112363;1202;101091;-73
2021/09/15 09:58:04;;;;;;;0.40;0.00;;;;;;;31.67;32.02;100614.88;112417;1198;137626;-72
2021/09/15 10:00:32;;;;;;;0.40;0.00;;;;;;;32.31;31.15;100609.20;112536;1198;94861;-73
2021/09/15 10:02:59;;;;;;;0.40;0.00;;;;;;;33.16;29.56;100614.59;112614;1198;100033;-73
2021/09/15 10:05:26;;;;;;;0.40;0.00;;;;;;;33.76;28.21;100615.38;112346;1197;138308;-74
2021/09/15 10:07:53;;;;;;;0.40;0.00;;;;;;;34.62;29.03;100606.25;112534;1197;94805;-74
2021/09/15 10:10:21;;;;;;;0.40;0.00;;;;;;;35.74;26.74;100605.02;112382;1197;137387;-73
2021/09/15 10:12:54;;;;;;;0.40;0.00;;;;;;;35.76;25.13;100605.42;112589;1202;95415;-74
2021/09/15 10:15:21;;;;;;;0.40;0.00;;;;;;;36.20;26.27;100596.69;112289;1198;137598;-73
2021/09/15 10:17:51;;;;;;;0.40;0.00;;;;;;;36.71;24.75;100596.02;112614;1204;94817;-73
2021/09/15 10:20:22;;;;;;;0.40;0.00;;;;;;;36.76;23.76;100593.55;112483;1203;96071;-72
2021/09/15 10:22:49;;;;;;;0.40;0.00;;;;;;;36.83;23.89;100595.21;112463;1198;137456;-72
2021/09/15 10:25:16;;;;;;;0.40;0.00;;;;;;;37.11;23.85;100598.06;112431;1198;94761;-74
2021/09/15 10:28:05;;;;;;;0.40;0.00;;;;;;;37.51;23.96;100595.95;112312;1198;137551;-74
2021/09/15 10:30:45;;;;;;;0.40;0.00;;;;;;;37.28;24.00;100591.77;112552;1197;94825;-73
2021/09/15 10:33:36;;;;;;;0.40;0.00;;;;;;;37.44;24.00;100591.06;112478;1199;138012;-74
2021/09/15 10:36:12;;;;;;;0.40;0.00;;;;;;;38.45;22.96;100587.23;112544;1198;101001;-73
2021/09/15 10:38:54;;;;;;;0.40;0.00;;;;;;;38.90;22.58;100584.35;112610;1201;95316;-73
2021/09/15 10:41:33;;;;;;;0.40;0.00;;;;;;;38.02;21.59;100582.60;112399;1198;137623;-74
2021/09/15 10:44:10;;;;;;;0.40;0.00;;;;;;;35.96;23.59;100583.54;112398;1198;99867;-72
2021/09/15 10:46:38;;;;;;;0.40;0.00;;;;;;;34.00;25.64;100584.95;112452;1198;137471;-73
2021/09/15 10:49:23;;;;;;;0.40;0.00;;;;;;;32.55;27.83;100579.02;112707;1197;94853;-74
2021/09/15 10:52:11;;;;;;;0.40;0.00;;;;;;;31.66;29.84;100573.05;112515;1199;137597;-73
2021/09/15 10:54:41;;;;;;;0.40;0.00;;;;;;;31.02;31.90;100574.83;112539;1198;98892;-74
2021/09/15 10:57:27;;;;;;;0.40;0.00;;;;;;;30.43;32.39;100567.27;112178;1198;137910;-74
2021/09/15 11:00:16;;;;;;;0.40;0.00;;;;;;;30.06;32.45;100568.83;112487;1198;94856;-72
2021/09/15 11:02:50;;;;;;;0.40;0.00;;;;;;;29.48;33.09;100575.44;112580;1198;94833;-72
2021/09/15 11:05:26;;;;;;;0.40;0.00;;;;;;;28.79;33.94;100577.30;112354;1199;136319;-72
2021/09/15 11:07:57;;;;;;;0.40;0.00;;;;;;;28.27;35.32;100576.38;112280;1205;109756;-73
2021/09/15 11:10:33;;;;;;;0.40;0.00;;;;;;;27.96;35.74;100575.77;112177;1200;137555;-72
2021/09/15 11:13:13;;;;;;;0.40;0.00;;;;;;;27.82;36.68;100569.92;112338;1205;94958;-73
2021/09/15 11:15:48;;;;;;;0.40;0.00;;;;;;;27.66;36.38;100569.80;112224;1205;138140;-73
2021/09/15 11:18:23;;;;;;;0.40;0.00;;;;;;;27.49;37.03;100568.15;112497;1198;109294;-73
2021/09/15 11:20:58;;;;;;;0.40;0.00;;;;;;;27.19;37.51;100564.38;112283;1206;95471;-75
2021/09/15 11:23:27;;;;;;;0.40;0.00;;;;;;;27.05;37.50;100555.15;112193;1199;137063;-75
2021/09/15 11:25:55;;;;;;;0.40;0.00;;;;;;;26.80;38.06;100559.23;112332;1199;108671;-73